x

Buoy E01 - Central Maine Shelf (44032) Wave Buoy

2:04 - Sun 14th Feb 2016 All times are EST. -5 hours from GMT.

  • Sig Wave height 4.3ft
  • Peak Period 5s
  • Wind
    22mph, 29mph gusts
  • Sea Temp 39°f
  • Aire Temp 12°f
  • Sea Pressure 1023.5mb
  • Buoy E01 - Central Maine Shelf
  • Buoy E01 - Central Maine Shelf

More Historic Weather Station data

Upgrade to MSW Pro to gain access to the past 30 days of data for over 8000 Wavebouys and Weather Stations around the globe.

Join Pro

Comparision Forecast

View Surf forecast
   
dom 02/14 2:04 4.5ft 5s 22 29 mph 1023.5mb 39f 12f
1:04 4ft 4s 20 29 mph 1023.5mb 40f 9f
12:04 4.5ft 4s 20 25 mph 1023.6mb 40f 7f
11:04 3.5ft 4s 18 25 mph 1023.8mb 40f 4f
10:04 3.5ft 5s 16 22 mph 1023.8mb 40f 3f
9:04 4.5ft 4s 11 20 mph 1023.2mb 39f 4f
8:04 4ft 5s 16 25 mph 1022.4mb 39f 3f
7:04 4.5ft 4s 18 25 mph 1020.7mb 39f 3f
6:04 4.5ft 4s 22 27 mph 1019.5mb 40f 3f
4:04 4.5ft 4s 22 29 mph 1016.9mb 40f 3f
3:04 4.5ft 4s 22 29 mph 1016mb 40f 2f
2:04 5ft 5s 22 29 mph 1015.4mb 40f 2f
1:04 5ft 4s 22 27 mph 1015.1mb 40f 2f
12:04 5.5ft 5s 25 31 mph 1014.8mb 40f 2f
sáb 02/13 11:04 6ft 5s 22 29 mph 1014.8mb 40f 1f
10:04 6ft 5s 25 34 mph 1014.9mb 39f 2f
9:04 6ft 5s 29 36 mph 1014.4mb 39f 5f
8:04 6.5ft 5s 31 40 mph 1013.6mb 39f 9f
7:04 6ft 5s 31 43 mph 1012mb 39f 14f
6:04 5ft 4s 27 34 mph 1010.5mb 39f 17f
5:04 4ft 4s 22 31 mph 1008.8mb 39f 20f
4:04 3.5ft 6s 22 29 mph 1007.6mb 39f 21f
3:04 4.5ft 4s 22 27 mph 1006.7mb 40f 22f
2:04 3.5ft 4s 22 29 mph 1005.8mb 40f 22f
1:04 4ft 4s 25 29 mph 1005.4mb 40f 22f
12:04 3.5ft 4s 22 29 mph 1005.3mb 40f 21f
11:04 2ft 3s 18 22 mph 1005.6mb 40f 21f
10:04 2ft 3s 16 20 mph 1005.7mb 40f 23f
9:04 1.6ft 3s 13 18 mph 1005.9mb 39f 24f
8:04 2.5ft 11s 13 18 mph 1006.5mb 39f 22f
7:04 2.5ft 11s 13 18 mph 1007mb 40f 22f
6:04 3ft 11s 13 16 mph 1007.1mb 40f 22f
5:04 3ft 11s 16 18 mph 1007.4mb 39f 21f
3:04 2.5ft 11s 13 18 mph 1008.4mb 39f 20f
2:04 2.5ft 11s 13 18 mph 1009.6mb 40f 22f
1:04 2ft 5s 11 13 mph 1010.7mb 40f 22f
12:04 3ft 11s 7 9 mph 1011.5mb 41f 22f
vie 02/12 11:04 2.5ft 4s 13 22 mph 1011.9mb 40f 24f
10:04 2.5ft 4s 11 16 mph 1012.6mb 40f 24f
9:04 3ft 11s 9 13 mph 1013.5mb 40f 25f
8:04 2ft 4s 11 16 mph 1014.9mb 40f 24f
7:04 2.5ft 11s 11 16 mph 1015.7mb 40f 24f
6:04 3ft 11s 9 13 mph 1016mb 40f 22f
5:04 2.5ft 5s 9 11 mph 1016.2mb 40f 20f
4:04 3ft 11s 13 18 mph 1016.5mb 39f 19f
3:04 3ft 11s 9 13 mph 1016.6mb 40f 17f
2:04 2.5ft 5s 9 13 mph 1016.4mb 41f 17f
1:04 2.5ft 11s 7 11 mph 1017.1mb 41f 15f
12:04 2.5ft 5s 9 16 mph 1017.9mb 41f 14f
11:04 2.5ft 4s 9 16 mph 1018.9mb 41f 12f
10:04 2.5ft 5s 16 20 mph 1019mb 41f 13f
9:04 3ft 4s 20 27 mph 1019.5mb 42f 11f
8:04 3.5ft 5s 20 27 mph 1018.9mb 42f 11f
7:04 3.5ft 5s 18 25 mph 1018.4mb 42f 10f
6:04 4ft 5s 22 29 mph 1017.6mb 41f 10f
5:04 4.5ft 5s 25 31 mph 1016.8mb 41f 10f
4:04 4.5ft 5s 25 29 mph 1015.8mb 41f 10f
3:04 5ft 4s 27 34 mph 1014.4mb 42f 10f
2:04 5ft 4s 29 40 mph 1013.9mb 42f 10f
1:04 5.5ft 5s 29 36 mph 1012.8mb 42f 10f
12:04 5.5ft 4s 27 34 mph 1011.6mb 43f 13f
jue 02/11 10:04 5ft 5s 25 34 mph 1009.3mb 42f 18f
9:04 6.5ft 5s 27 31 mph 1008mb 42f 20f
8:04 6ft 5s 29 36 mph 1007.1mb 42f 23f
7:04 4ft 4s 27 34 mph 1005.7mb 42f 26f
6:04 5.5ft 11s 27 36 mph 1004.1mb 41f 27f
5:04 4.5ft 11s 18 22 mph 1003.1mb 42f 28f
4:04 3.5ft 11s 13 20 mph 1002.5mb 43f 29f
3:04 4ft 11s 13 18 mph 1002.2mb 43f 28f
2:04 3.5ft 11s 13 20 mph 1001.7mb 43f 29f
1:04 3ft 11s 9 13 mph 1001.9mb 43f 29f
12:04 3.5ft 11s 7 11 mph 1002.3mb 42f 28f
11:04  -   -  11 13 mph 1002.9mb 42f 27f
10:04  -   -  9 11 mph 1003mb 42f 27f
9:04 2.5ft 5s 11 16 mph 1003.4mb 42f 27f
8:04  -   -  13 20 mph 1002.7mb 41f 27f
7:04 5ft 11s 16 22 mph 1002.2mb 42f 28f
6:04 6ft 11s 20 22 mph 1001.8mb 41f 28f
5:04 6ft 11s 20 27 mph 1001.1mb 41f 29f
4:04 5ft 11s 22 25 mph 1000.8mb 42f 30f
3:04 5ft 11s 20 25 mph 1000.2mb 42f 31f
2:04 4.5ft 11s 13 16 mph 999.8mb 41f 32f
1:04 5ft 11s  -  mph - 42f -
12:04  -   -  18 20 mph 999.3mb 42f 36f
mié 02/10 11:04  -   -  18 22 mph 999.4mb 42f 37f
10:04  -   -  16 20 mph 999.6mb 42f 37f